Toronto, Canada
Current Conditions -  °F | °C
As of 3:00 AM on Monday 26 Jan 2015 (Local Time) from CYYZ Reporting Station
Overcast Overcast  
Wind Chill: -3°   Ceiling: 2200
Heat Index: 10°   Visibility: 15mi
Dew Point:   Wind: 10mph
Humidity: 62%   Direction: 50°NE
Pressure: 30.03"   Gusts: NA
Location:  43.65°N, 79.39°W
Report Text: CYYZ 260800Z 05009KT 15SM BKN022 OVC170 M12/M18 A3003 RMK SC6AS2 SLP180
Loading
Personal Weather Stations






























Interactive Weather Map New forecast layout! Learn more

10-Day Weather Forecast

Advertisements
Track Severe Weather on mobile